DNAK

Akure Airport

Akure, Nigeria
TAF DNAK 182140Z 1900/2006 VRB02KT 7000 FEW011 TEMPO 1905/1908 4000 BR BECMG 1908/1910 18010KT BKN014
Issued Valid From Valid To
Jan-18 @ 21:40 UTC
(5 hours ago)
Jan-19 @ 00:00 UTC
(2 hours ago)
Jan-20 @ 06:00 UTC
(-1 days ago)
Jan-19 @ 00:00 to Jan-19 @ 08:00
TAF DNAK 182140Z 1900/2006 VRB02KT 7000 FEW011
Wind Visibility Clouds
Variable at 2 knots 7,001 meters
  • Few at 1,100' AGL
Temporary Jan-19 @ 05:00 to Jan-19 @ 08:00
TEMPO 1905/1908 4000 BR
Visibility Conditions
4,007 meters
  • Mist
Becoming Jan-19 @ 08:00 to Jan-20 @ 06:00
BECMG 1908/1910 18010KT BKN014
Wind Visibility Clouds
180° at 10 knots 7,001 meters
  • Broken at 1,400' AGL
TAF DNAK 182140Z 1900/2006 VRB02KT 7000 FEW011 TEMPO 1905/1908 4000 BR BECMG 1908/1910 18010KT BKN014
Issued Jan-18 @ 21:40 UTC
(5 hours ago)
Valid From Jan-19 @ 00:00 UTC
(2 hours ago)
Valid To Jan-20 @ 06:00 UTC
(-1 days ago)
Jan-19 @ 00:00 - Jan-19 @ 08:00
Wind Visibility
Variable at 2 knots 7,001 meters
Clouds
  • Few at 1,100' AGL
Temporary Jan-19 @ 05:00 - Jan-19 @ 08:00
Conditions
  • Mist
Becoming Jan-19 @ 08:00 - Jan-20 @ 06:00
Wind Visibility
180° at 10 knots 7,001 meters
Clouds
  • Broken at 1,400' AGL